Gaspar, Brazil
Current Conditions -  °F | °C
As of 2:40 PM on Sunday 21 Dec 2014 (Local Time) from SBNF Reporting Station
Thunderstorm Thunderstorm  
Wind Chill: 82°   Ceiling: Unl
Heat Index: 92°   Visibility: 6mi
Dew Point: 79°   Wind: 14mph
Humidity: 89%   Direction: 60°ENE
Pressure: 29.62"   Gusts: NA
Location:  26.94°S, 48.96°W
Report Text: SBNF 211640Z 06012KT 9999 TS FEW020 FEW035CB SCT050 28/26 Q1003
Loading
Personal Weather Stations






























Interactive Weather Map New forecast layout! Learn more

10-Day Weather Forecast

Advertisements
Track Severe Weather on mobile